Porto Di Livorno — IFPU2 — position and weather

sailwx.info

Track history (hours):
 
Tides and Currents Weather Stations Pressure Air Temp Water Temp Dewpoint Dewpoint Depression Visibility Wind Speed Wind Dir Waves Ship Positions

Porto Di Livorno

Last reported at 2017-Jan-19 16:33 UTC. Time now 2017-Jan-19 17:00 UTC.
Position N 43°34' E 010°18'.

Length 24 m; draft 6.1 m.

Type: Tug. MMSI: 247194299.

Date/timePositionNaut miles runAvg speedWind from/ knotsBaromVisibWave heightAir tempDewpointWater temp
2017-Jan-19 16:33N 43°34' E 010°18'0 0.2
2017-Jan-19 15:33N 43°34' E 010°18'0 0.2
2017-Jan-19 14:33N 43°34' E 010°18'1 0.7
2017-Jan-19 13:26N 43°34' E 010°19'1 0.6
2017-Jan-19 12:34N 43°35' E 010°19'1 1.3
2017-Jan-19 11:33N 43°34' E 010°18'0 0.0
2017-Jan-19 10:33N 43°34' E 010°18'0 0.0
2017-Jan-19 09:33N 43°34' E 010°18'0 0.0
2017-Jan-19 08:33N 43°34' E 010°18'0 0.5
2017-Jan-19 07:33N 43°34' E 010°18'1 1.0
2017-Jan-19 06:33N 43°35' E 010°19'0 0.0
2017-Jan-19 05:33N 43°35' E 010°19'1 0.2
2017-Jan-18 23:17N 43°34' E 010°18'1 0.8
2017-Jan-18 22:34N 43°34' E 010°18'1 1.3
2017-Jan-18 21:33N 43°33' E 010°18'1 0.7
2017-Jan-18 20:33N 43°34' E 010°18'1 1.5
2017-Jan-18 19:33N 43°35' E 010°19'0 0.0
2017-Jan-18 18:33N 43°35' E 010°19'0 0.0
2017-Jan-18 17:33N 43°35' E 010°19'0 0.0
2017-Jan-18 16:33N 43°35' E 010°19'1 1.5
2017-Jan-18 15:34N 43°34' E 010°18'0 0.0
2017-Jan-18 14:33N 43°34' E 010°18'0 0.2
2017-Jan-18 13:33N 43°33' E 010°18'1 1.3
2017-Jan-18 12:33N 43°32' E 010°17'1 0.3
2017-Jan-18 08:08N 43°34' E 010°18'0 0.0
2017-Jan-18 04:33N 43°34' E 010°18'0 0.0
2017-Jan-18 03:33N 43°34' E 010°18'1 1.3
2017-Jan-18 02:33N 43°35' E 010°18'1 1.3
2017-Jan-18 01:33N 43°34' E 010°18'0 0.0
2017-Jan-18 00:33N 43°34' E 010°18'1 0.9
2017-Jan-17 23:33N 43°34' E 010°19'1 0.9
2017-Jan-17 22:33N 43°34' E 010°18'0 0.0
2017-Jan-17 21:33N 43°34' E 010°18'1 0.9
2017-Jan-17 20:34N 43°34' E 010°18'1 0.5
2017-Jan-17 19:34N 43°34' E 010°18'0 0.4
2017-Jan-17 18:33N 43°34' E 010°18'0 0.1
2017-Jan-17 17:33N 43°35' E 010°18'1 0.1
2017-Jan-17 06:33N 43°35' E 010°19'1 0.1
2017-Jan-16 16:33N 43°34' E 010°18'1 0.6
2017-Jan-16 15:33N 43°34' E 010°19'0 0.3
2017-Jan-16 14:34N 43°34' E 010°19'1 0.9
2017-Jan-16 13:33N 43°34' E 010°18'0 0.0
2017-Jan-16 12:33N 43°34' E 010°18'2 1.8
2017-Jan-16 11:33N 43°32' E 010°17'2 1.8
2017-Jan-16 10:34N 43°34' E 010°18'0 0.0
2017-Jan-16 09:33N 43°34' E 010°18'0 0.0
2017-Jan-16 08:33N 43°34' E 010°18'0 0.0
2017-Jan-16 07:33N 43°34' E 010°18'1 0.8
2017-Jan-16 06:33N 43°34' E 010°18'3 2.9
2017-Jan-16 05:34N 43°32' E 010°16'3 0.2
2017-Jan-15 17:34N 43°34' E 010°18'1 1.3
2017-Jan-15 16:33N 43°33' E 010°17'1 0.8
2017-Jan-15 15:34N 43°34' E 010°18'0 0.0
2017-Jan-15 14:34N 43°34' E 010°18'0 0.3
2017-Jan-15 13:34N 43°34' E 010°18'0 0.3
2017-Jan-15 12:33N 43°34' E 010°18'2 1.9
2017-Jan-15 11:34N 43°32' E 010°17'2 1.9
2017-Jan-15 10:33N 43°34' E 010°18'0 0.5
2017-Jan-15 09:34N 43°34' E 010°18'1 0.5
2017-Jan-15 08:33N 43°33' E 010°18'1 1.0
2017-Jan-15 07:34N 43°34' E 010°18'0 0.5
2017-Jan-15 06:34N 43°34' E 010°18'0 0.1
2017-Jan-15 05:33N 43°34' E 010°18'0 0.0
2017-Jan-14 17:32N 43°34' E 010°18'0 0.0
2017-Jan-14 16:33N 43°34' E 010°18'0 0.0
2017-Jan-14 15:33N 43°34' E 010°18'0 0.0
2017-Jan-14 14:33N 43°34' E 010°18'0 0.0
2017-Jan-14 13:33N 43°34' E 010°18'1 1.0
2017-Jan-14 12:33N 43°33' E 010°17'2 1.9
2017-Jan-14 11:33N 43°35' E 010°18'0 0.1
2017-Jan-14 10:33N 43°35' E 010°18'0 0.1
2017-Jan-14 09:33N 43°35' E 010°18'0 0.1
2017-Jan-14 08:33N 43°34' E 010°18'3 3.1
2017-Jan-14 07:33N 43°32' E 010°16'3 2.8
2017-Jan-14 06:33N 43°34' E 010°18'0 0.5
2017-Jan-14 05:33N 43°34' E 010°18'0 0.4
2017-Jan-14 04:33N 43°34' E 010°18'0 0.4
2017-Jan-14 03:33N 43°34' E 010°18'1 0.3
2017-Jan-13 23:33N 43°35' E 010°19'0 0.0
2017-Jan-13 22:33N 43°35' E 010°19'1 1.2
2017-Jan-13 21:33N 43°34' E 010°18'1 0.8
2017-Jan-13 20:33N 43°34' E 010°18'0 0.0
2017-Jan-13 19:33N 43°34' E 010°18'1 1.0
2017-Jan-13 18:33N 43°34' E 010°18'1 0.8
2017-Jan-13 17:33N 43°34' E 010°18'2 0.1
2017-Jan-12 16:34N 43°32' E 010°17'2 2.4
2017-Jan-12 15:34N 43°35' E 010°18'1 1.1
2017-Jan-12 14:33N 43°34' E 010°18'0 0.5
2017-Jan-12 13:33N 43°33' E 010°18'2 1.6
2017-Jan-12 12:34N 43°35' E 010°19'1 1.2
2017-Jan-12 11:33N 43°34' E 010°18'0 0.0
2017-Jan-12 10:33N 43°34' E 010°18'1 0.5
2017-Jan-12 09:33N 43°33' E 010°18'1 0.5
2017-Jan-12 08:33N 43°34' E 010°18'0 0.0
2017-Jan-12 07:33N 43°34' E 010°18'0 0.2
2017-Jan-12 06:33N 43°34' E 010°18'0 0.0
2017-Jan-12 05:33N 43°34' E 010°18'1 1.0
2017-Jan-12 04:34N 43°33' E 010°17'1 0.8
2017-Jan-12 03:33N 43°34' E 010°18'0 0.0
2017-Jan-12 02:33N 43°34' E 010°18'0 0.0
2017-Jan-12 01:33N 43°34' E 010°18'0 0.0
2017-Jan-12 00:33N 43°34' E 010°18'1 1.0
2017-Jan-11 23:33N 43°35' E 010°18'3 3.3
2017-Jan-11 22:34N 43°32' E 010°16'2 2.1
2017-Jan-11 21:34N 43°33' E 010°18'0 0.3
2017-Jan-11 20:33N 43°34' E 010°18'0 0.0
2017-Jan-11 19:33N 43°34' E 010°18'0 0.0
2017-Jan-11 18:33N 43°34' E 010°18'0 0.0
2017-Jan-11 17:33N 43°34' E 010°18'0 0.0
2017-Jan-11 16:33N 43°34' E 010°18'0 0.0
2017-Jan-11 15:34N 43°34' E 010°18'0 0.0
2017-Jan-11 14:34N 43°34' E 010°18'0 0.0
2017-Jan-11 13:34N 43°34' E 010°18'0 0.0
2017-Jan-11 12:34N 43°34' E 010°18'0 0.0
2017-Jan-11 11:34N 43°34' E 010°18'0 0.0
2017-Jan-11 10:34N 43°34' E 010°18'0 0.0
2017-Jan-11 09:34N 43°34' E 010°18'1 0.0
2017-Jan-10 16:33N 43°33' E 010°18'1 0.6
2017-Jan-10 15:33N 43°34' E 010°18'0 0.0
2017-Jan-10 14:33N 43°34' E 010°18'0 0.0
2017-Jan-10 13:33N 43°34' E 010°18'1 0.7
2017-Jan-10 12:33N 43°34' E 010°18'1 1.1
2017-Jan-10 11:33N 43°33' E 010°18'0 0.4
2017-Jan-10 10:33N 43°34' E 010°18'0 0.0
2017-Jan-10 09:33N 43°34' E 010°18'1 0.6
2017-Jan-10 08:33N 43°34' E 010°19'3 3.1
2017-Jan-10 07:34N 43°32' E 010°16'2 2.5
2017-Jan-10 06:33N 43°34' E 010°18'0 0.0
2017-Jan-10 05:33N 43°34' E 010°18'  
Track history (hours):
 
Tides and Currents Weather Stations Pressure Air Temp Water Temp Dewpoint Dewpoint Depression Visibility Wind Speed Wind Dir Waves Ship Positions

Porto Di Livorno

Last reported at 2017-Jan-19 16:33 UTC. Time now 2017-Jan-19 17:00 UTC.
Position N 43°34' E 010°18'.

Length 24 m; draft 6.1 m.

Type: Tug. MMSI: 247194299.

Date/timePositionNaut miles runAvg speedWind from/ knotsBaromVisibWave heightAir tempDewpointWater temp
2017-Jan-19 16:33N 43°34' E 010°18'0 0.2
2017-Jan-19 15:33N 43°34' E 010°18'0 0.2
2017-Jan-19 14:33N 43°34' E 010°18'1 0.7
2017-Jan-19 13:26N 43°34' E 010°19'1 0.6
2017-Jan-19 12:34N 43°35' E 010°19'1 1.3
2017-Jan-19 11:33N 43°34' E 010°18'0 0.0
2017-Jan-19 10:33N 43°34' E 010°18'0 0.0
2017-Jan-19 09:33N 43°34' E 010°18'0 0.0
2017-Jan-19 08:33N 43°34' E 010°18'0 0.5
2017-Jan-19 07:33N 43°34' E 010°18'1 1.0
2017-Jan-19 06:33N 43°35' E 010°19'0 0.0
2017-Jan-19 05:33N 43°35' E 010°19'1 0.2
2017-Jan-18 23:17N 43°34' E 010°18'1 0.8
2017-Jan-18 22:34N 43°34' E 010°18'1 1.3
2017-Jan-18 21:33N 43°33' E 010°18'1 0.7
2017-Jan-18 20:33N 43°34' E 010°18'1 1.5
2017-Jan-18 19:33N 43°35' E 010°19'0 0.0
2017-Jan-18 18:33N 43°35' E 010°19'0 0.0
2017-Jan-18 17:33N 43°35' E 010°19'0 0.0
2017-Jan-18 16:33N 43°35' E 010°19'1 1.5
2017-Jan-18 15:34N 43°34' E 010°18'0 0.0
2017-Jan-18 14:33N 43°34' E 010°18'0 0.2
2017-Jan-18 13:33N 43°33' E 010°18'1 1.3
2017-Jan-18 12:33N 43°32' E 010°17'1 0.3
2017-Jan-18 08:08N 43°34' E 010°18'0 0.0
2017-Jan-18 04:33N 43°34' E 010°18'0 0.0
2017-Jan-18 03:33N 43°34' E 010°18'1 1.3
2017-Jan-18 02:33N 43°35' E 010°18'1 1.3
2017-Jan-18 01:33N 43°34' E 010°18'0 0.0
2017-Jan-18 00:33N 43°34' E 010°18'1 0.9
2017-Jan-17 23:33N 43°34' E 010°19'1 0.9
2017-Jan-17 22:33N 43°34' E 010°18'0 0.0
2017-Jan-17 21:33N 43°34' E 010°18'1 0.9
2017-Jan-17 20:34N 43°34' E 010°18'1 0.5
2017-Jan-17 19:34N 43°34' E 010°18'0 0.4
2017-Jan-17 18:33N 43°34' E 010°18'0 0.1
2017-Jan-17 17:33N 43°35' E 010°18'1 0.1
2017-Jan-17 06:33N 43°35' E 010°19'1 0.1
2017-Jan-16 16:33N 43°34' E 010°18'1 0.6
2017-Jan-16 15:33N 43°34' E 010°19'0 0.3
2017-Jan-16 14:34N 43°34' E 010°19'1 0.9
2017-Jan-16 13:33N 43°34' E 010°18'0 0.0
2017-Jan-16 12:33N 43°34' E 010°18'2 1.8
2017-Jan-16 11:33N 43°32' E 010°17'2 1.8
2017-Jan-16 10:34N 43°34' E 010°18'0 0.0
2017-Jan-16 09:33N 43°34' E 010°18'0 0.0
2017-Jan-16 08:33N 43°34' E 010°18'0 0.0
2017-Jan-16 07:33N 43°34' E 010°18'1 0.8
2017-Jan-16 06:33N 43°34' E 010°18'3 2.9
2017-Jan-16 05:34N 43°32' E 010°16'3 0.2
2017-Jan-15 17:34N 43°34' E 010°18'1 1.3
2017-Jan-15 16:33N 43°33' E 010°17'1 0.8
2017-Jan-15 15:34N 43°34' E 010°18'0 0.0
2017-Jan-15 14:34N 43°34' E 010°18'0 0.3
2017-Jan-15 13:34N 43°34' E 010°18'0 0.3
2017-Jan-15 12:33N 43°34' E 010°18'2 1.9
2017-Jan-15 11:34N 43°32' E 010°17'2 1.9
2017-Jan-15 10:33N 43°34' E 010°18'0 0.5
2017-Jan-15 09:34N 43°34' E 010°18'1 0.5
2017-Jan-15 08:33N 43°33' E 010°18'1 1.0
2017-Jan-15 07:34N 43°34' E 010°18'0 0.5
2017-Jan-15 06:34N 43°34' E 010°18'0 0.1
2017-Jan-15 05:33N 43°34' E 010°18'0 0.0
2017-Jan-14 17:32N 43°34' E 010°18'0 0.0
2017-Jan-14 16:33N 43°34' E 010°18'0 0.0
2017-Jan-14 15:33N 43°34' E 010°18'0 0.0
2017-Jan-14 14:33N 43°34' E 010°18'0 0.0
2017-Jan-14 13:33N 43°34' E 010°18'1 1.0
2017-Jan-14 12:33N 43°33' E 010°17'2 1.9
2017-Jan-14 11:33N 43°35' E 010°18'0 0.1
2017-Jan-14 10:33N 43°35' E 010°18'0 0.1
2017-Jan-14 09:33N 43°35' E 010°18'0 0.1
2017-Jan-14 08:33N 43°34' E 010°18'3 3.1
2017-Jan-14 07:33N 43°32' E 010°16'3 2.8
2017-Jan-14 06:33N 43°34' E 010°18'0 0.5
2017-Jan-14 05:33N 43°34' E 010°18'0 0.4
2017-Jan-14 04:33N 43°34' E 010°18'0 0.4
2017-Jan-14 03:33N 43°34' E 010°18'1 0.3
2017-Jan-13 23:33N 43°35' E 010°19'0 0.0
2017-Jan-13 22:33N 43°35' E 010°19'1 1.2
2017-Jan-13 21:33N 43°34' E 010°18'1 0.8
2017-Jan-13 20:33N 43°34' E 010°18'0 0.0
2017-Jan-13 19:33N 43°34' E 010°18'1 1.0
2017-Jan-13 18:33N 43°34' E 010°18'1 0.8
2017-Jan-13 17:33N 43°34' E 010°18'2 0.1
2017-Jan-12 16:34N 43°32' E 010°17'2 2.4
2017-Jan-12 15:34N 43°35' E 010°18'1 1.1
2017-Jan-12 14:33N 43°34' E 010°18'0 0.5
2017-Jan-12 13:33N 43°33' E 010°18'2 1.6
2017-Jan-12 12:34N 43°35' E 010°19'1 1.2
2017-Jan-12 11:33N 43°34' E 010°18'0 0.0
2017-Jan-12 10:33N 43°34' E 010°18'1 0.5
2017-Jan-12 09:33N 43°33' E 010°18'1 0.5
2017-Jan-12 08:33N 43°34' E 010°18'0 0.0
2017-Jan-12 07:33N 43°34' E 010°18'0 0.2
2017-Jan-12 06:33N 43°34' E 010°18'0 0.0
2017-Jan-12 05:33N 43°34' E 010°18'1 1.0
2017-Jan-12 04:34N 43°33' E 010°17'1 0.8
2017-Jan-12 03:33N 43°34' E 010°18'0 0.0
2017-Jan-12 02:33N 43°34' E 010°18'0 0.0
2017-Jan-12 01:33N 43°34' E 010°18'0 0.0
2017-Jan-12 00:33N 43°34' E 010°18'1 1.0
2017-Jan-11 23:33N 43°35' E 010°18'3 3.3
2017-Jan-11 22:34N 43°32' E 010°16'2 2.1
2017-Jan-11 21:34N 43°33' E 010°18'0 0.3
2017-Jan-11 20:33N 43°34' E 010°18'0 0.0
2017-Jan-11 19:33N 43°34' E 010°18'0 0.0
2017-Jan-11 18:33N 43°34' E 010°18'0 0.0
2017-Jan-11 17:33N 43°34' E 010°18'0 0.0
2017-Jan-11 16:33N 43°34' E 010°18'0 0.0
2017-Jan-11 15:34N 43°34' E 010°18'0 0.0
2017-Jan-11 14:34N 43°34' E 010°18'0 0.0
2017-Jan-11 13:34N 43°34' E 010°18'0 0.0
2017-Jan-11 12:34N 43°34' E 010°18'0 0.0
2017-Jan-11 11:34N 43°34' E 010°18'0 0.0
2017-Jan-11 10:34N 43°34' E 010°18'0 0.0
2017-Jan-11 09:34N 43°34' E 010°18'1 0.0
2017-Jan-10 16:33N 43°33' E 010°18'1 0.6
2017-Jan-10 15:33N 43°34' E 010°18'0 0.0
2017-Jan-10 14:33N 43°34' E 010°18'0 0.0
2017-Jan-10 13:33N 43°34' E 010°18'1 0.7
2017-Jan-10 12:33N 43°34' E 010°18'1 1.1
2017-Jan-10 11:33N 43°33' E 010°18'0 0.4
2017-Jan-10 10:33N 43°34' E 010°18'0 0.0
2017-Jan-10 09:33N 43°34' E 010°18'1 0.6
2017-Jan-10 08:33N 43°34' E 010°19'3 3.1
2017-Jan-10 07:34N 43°32' E 010°16'2 2.5
2017-Jan-10 06:33N 43°34' E 010°18'0 0.0
2017-Jan-10 05:33N 43°34' E 010°18'  

Dump ship's entire track history